sensor_id;sensor_type;location;lat;lon;timestamp;P1;durP1;ratioP1;P2;durP2;ratioP2
2474;SDS011;1248;48.694;10.160;2023-05-21T00:01:08;19.17;;;16.00;;
2474;SDS011;1248;48.694;10.160;2023-05-21T00:03:35;21.63;;;14.33;;
2474;SDS011;1248;48.694;10.160;2023-05-21T00:06:02;17.13;;;14.67;;
2474;SDS011;1248;48.694;10.160;2023-05-21T00:08:30;21.43;;;15.73;;
2474;SDS011;1248;48.694;10.160;2023-05-21T00:10:58;22.53;;;14.97;;
2474;SDS011;1248;48.694;10.160;2023-05-21T00:13:25;23.93;;;15.37;;
2474;SDS011;1248;48.694;10.160;2023-05-21T00:15:52;18.63;;;15.50;;
2474;SDS011;1248;48.694;10.160;2023-05-21T00:18:20;17.40;;;13.27;;
2474;SDS011;1248;48.694;10.160;2023-05-21T00:20:47;17.23;;;15.40;;
2474;SDS011;1248;48.694;10.160;2023-05-21T00:23:14;18.73;;;14.23;;
2474;SDS011;1248;48.694;10.160;2023-05-21T00:25:44;16.10;;;14.27;;
2474;SDS011;1248;48.694;10.160;2023-05-21T00:28:12;18.73;;;14.90;;
2474;SDS011;1248;48.694;10.160;2023-05-21T00:30:39;20.60;;;14.70;;
2474;SDS011;1248;48.694;10.160;2023-05-21T00:33:07;18.60;;;15.43;;
2474;SDS011;1248;48.694;10.160;2023-05-21T00:35:38;18.37;;;15.67;;
2474;SDS011;1248;48.694;10.160;2023-05-21T00:38:05;18.80;;;15.57;;
2474;SDS011;1248;48.694;10.160;2023-05-21T00:40:33;19.67;;;15.90;;
2474;SDS011;1248;48.694;10.160;2023-05-21T00:43:01;18.47;;;16.10;;
2474;SDS011;1248;48.694;10.160;2023-05-21T00:45:28;19.27;;;14.90;;
2474;SDS011;1248;48.694;10.160;2023-05-21T00:47:55;16.47;;;14.37;;
2474;SDS011;1248;48.694;10.160;2023-05-21T00:50:23;18.27;;;14.10;;
2474;SDS011;1248;48.694;10.160;2023-05-21T00:52:50;15.83;;;13.90;;
2474;SDS011;1248;48.694;10.160;2023-05-21T00:55:18;17.37;;;15.57;;
2474;SDS011;1248;48.694;10.160;2023-05-21T00:57:45;20.73;;;16.33;;
2474;SDS011;1248;48.694;10.160;2023-05-21T01:00:13;18.33;;;14.50;;
2474;SDS011;1248;48.694;10.160;2023-05-21T01:02:41;19.77;;;15.03;;
2474;SDS011;1248;48.694;10.160;2023-05-21T01:05:08;20.33;;;16.00;;
2474;SDS011;1248;48.694;10.160;2023-05-21T01:07:37;20.47;;;15.93;;
2474;SDS011;1248;48.694;10.160;2023-05-21T01:10:06;21.40;;;16.10;;
2474;SDS011;1248;48.694;10.160;2023-05-21T01:12:34;20.33;;;15.83;;
2474;SDS011;1248;48.694;10.160;2023-05-21T01:15:04;17.47;;;15.50;;
2474;SDS011;1248;48.694;10.160;2023-05-21T01:17:34;20.10;;;15.93;;
2474;SDS011;1248;48.694;10.160;2023-05-21T01:20:01;18.90;;;15.00;;
2474;SDS011;1248;48.694;10.160;2023-05-21T01:22:34;21.93;;;17.17;;
2474;SDS011;1248;48.694;10.160;2023-05-21T01:25:05;19.87;;;17.27;;
2474;SDS011;1248;48.694;10.160;2023-05-21T01:27:33;21.00;;;16.80;;
2474;SDS011;1248;48.694;10.160;2023-05-21T01:30:00;24.40;;;16.60;;
2474;SDS011;1248;48.694;10.160;2023-05-21T01:32:29;19.40;;;17.37;;
2474;SDS011;1248;48.694;10.160;2023-05-21T01:34:59;22.27;;;16.40;;
2474;SDS011;1248;48.694;10.160;2023-05-21T01:37:31;21.80;;;17.23;;
2474;SDS011;1248;48.694;10.160;2023-05-21T01:40:02;19.37;;;16.57;;
2474;SDS011;1248;48.694;10.160;2023-05-21T01:42:35;20.10;;;16.10;;
2474;SDS011;1248;48.694;10.160;2023-05-21T01:45:03;23.83;;;16.60;;
2474;SDS011;1248;48.694;10.160;2023-05-21T01:47:32;20.37;;;15.50;;
2474;SDS011;1248;48.694;10.160;2023-05-21T01:50:00;19.57;;;16.63;;
2474;SDS011;1248;48.694;10.160;2023-05-21T01:52:28;24.83;;;16.77;;
2474;SDS011;1248;48.694;10.160;2023-05-21T01:54:55;19.40;;;16.43;;
2474;SDS011;1248;48.694;10.160;2023-05-21T01:57:24;19.40;;;17.10;;
2474;SDS011;1248;48.694;10.160;2023-05-21T01:59:51;22.50;;;15.97;;
2474;SDS011;1248;48.694;10.160;2023-05-21T02:02:19;23.60;;;16.57;;
2474;SDS011;1248;48.694;10.160;2023-05-21T02:04:46;19.70;;;16.40;;
2474;SDS011;1248;48.694;10.160;2023-05-21T02:07:14;20.43;;;15.90;;
2474;SDS011;1248;48.694;10.160;2023-05-21T02:09:42;19.67;;;16.40;;
2474;SDS011;1248;48.694;10.160;2023-05-21T02:12:10;22.10;;;17.40;;
2474;SDS011;1248;48.694;10.160;2023-05-21T02:14:38;18.80;;;16.80;;
2474;SDS011;1248;48.694;10.160;2023-05-21T02:17:06;18.00;;;16.30;;
2474;SDS011;1248;48.694;10.160;2023-05-21T02:19:33;18.60;;;16.23;;
2474;SDS011;1248;48.694;10.160;2023-05-21T02:22:00;20.40;;;17.30;;
2474;SDS011;1248;48.694;10.160;2023-05-21T02:24:27;19.50;;;16.83;;
2474;SDS011;1248;48.694;10.160;2023-05-21T02:26:54;20.33;;;17.03;;
2474;SDS011;1248;48.694;10.160;2023-05-21T02:29:23;23.03;;;17.90;;
2474;SDS011;1248;48.694;10.160;2023-05-21T02:31:51;18.90;;;16.77;;
2474;SDS011;1248;48.694;10.160;2023-05-21T02:34:18;20.90;;;17.37;;
2474;SDS011;1248;48.694;10.160;2023-05-21T02:36:45;21.60;;;16.20;;
2474;SDS011;1248;48.694;10.160;2023-05-21T02:39:16;18.60;;;16.33;;
2474;SDS011;1248;48.694;10.160;2023-05-21T02:41:44;22.67;;;17.70;;
2474;SDS011;1248;48.694;10.160;2023-05-21T02:44:11;20.63;;;15.83;;
2474;SDS011;1248;48.694;10.160;2023-05-21T02:46:38;20.80;;;17.37;;
2474;SDS011;1248;48.694;10.160;2023-05-21T02:49:06;23.70;;;16.87;;
2474;SDS011;1248;48.694;10.160;2023-05-21T02:51:33;21.33;;;17.30;;
2474;SDS011;1248;48.694;10.160;2023-05-21T02:54:00;21.40;;;17.10;;
2474;SDS011;1248;48.694;10.160;2023-05-21T02:56:27;20.37;;;18.17;;
2474;SDS011;1248;48.694;10.160;2023-05-21T02:58:54;17.57;;;15.77;;
2474;SDS011;1248;48.694;10.160;2023-05-21T03:01:21;17.83;;;16.03;;
2474;SDS011;1248;48.694;10.160;2023-05-21T03:03:48;20.80;;;16.70;;
2474;SDS011;1248;48.694;10.160;2023-05-21T03:06:17;19.47;;;17.47;;
2474;SDS011;1248;48.694;10.160;2023-05-21T03:08:44;20.40;;;17.20;;
2474;SDS011;1248;48.694;10.160;2023-05-21T03:11:11;17.10;;;15.30;;
2474;SDS011;1248;48.694;10.160;2023-05-21T03:13:38;23.10;;;16.70;;
2474;SDS011;1248;48.694;10.160;2023-05-21T03:16:07;18.63;;;16.50;;
2474;SDS011;1248;48.694;10.160;2023-05-21T03:18:34;21.10;;;17.20;;
2474;SDS011;1248;48.694;10.160;2023-05-21T03:21:01;21.83;;;17.47;;
2474;SDS011;1248;48.694;10.160;2023-05-21T03:23:30;21.23;;;17.20;;
2474;SDS011;1248;48.694;10.160;2023-05-21T03:25:57;19.70;;;17.07;;
2474;SDS011;1248;48.694;10.160;2023-05-21T03:28:24;20.77;;;17.17;;
2474;SDS011;1248;48.694;10.160;2023-05-21T03:30:51;21.83;;;16.63;;
2474;SDS011;1248;48.694;10.160;2023-05-21T03:33:19;21.00;;;16.80;;
2474;SDS011;1248;48.694;10.160;2023-05-21T03:35:46;22.00;;;16.87;;
2474;SDS011;1248;48.694;10.160;2023-05-21T03:38:13;19.27;;;17.30;;
2474;SDS011;1248;48.694;10.160;2023-05-21T03:40:41;20.33;;;16.80;;
2474;SDS011;1248;48.694;10.160;2023-05-21T03:43:08;18.80;;;16.80;;
2474;SDS011;1248;48.694;10.160;2023-05-21T03:45:35;21.63;;;17.97;;
2474;SDS011;1248;48.694;10.160;2023-05-21T03:48:03;18.90;;;16.47;;
2474;SDS011;1248;48.694;10.160;2023-05-21T03:50:30;18.30;;;16.40;;
2474;SDS011;1248;48.694;10.160;2023-05-21T03:52:57;20.30;;;17.60;;
2474;SDS011;1248;48.694;10.160;2023-05-21T03:55:24;20.57;;;17.53;;
2474;SDS011;1248;48.694;10.160;2023-05-21T03:57:52;24.53;;;18.80;;
2474;SDS011;1248;48.694;10.160;2023-05-21T04:00:20;21.30;;;17.90;;
2474;SDS011;1248;48.694;10.160;2023-05-21T04:02:47;19.60;;;17.60;;
2474;SDS011;1248;48.694;10.160;2023-05-21T04:05:14;21.83;;;18.23;;
2474;SDS011;1248;48.694;10.160;2023-05-21T04:07:41;20.13;;;16.90;;
2474;SDS011;1248;48.694;10.160;2023-05-21T04:10:11;20.57;;;17.50;;
2474;SDS011;1248;48.694;10.160;2023-05-21T04:12:38;19.37;;;17.30;;
2474;SDS011;1248;48.694;10.160;2023-05-21T04:15:07;22.10;;;15.67;;
2474;SDS011;1248;48.694;10.160;2023-05-21T04:17:34;24.13;;;19.07;;
2474;SDS011;1248;48.694;10.160;2023-05-21T04:20:01;21.60;;;17.27;;
2474;SDS011;1248;48.694;10.160;2023-05-21T04:22:29;20.40;;;16.63;;
2474;SDS011;1248;48.694;10.160;2023-05-21T04:24:56;20.70;;;17.10;;
2474;SDS011;1248;48.694;10.160;2023-05-21T04:27:24;19.33;;;17.23;;
2474;SDS011;1248;48.694;10.160;2023-05-21T04:29:51;21.50;;;16.50;;
2474;SDS011;1248;48.694;10.160;2023-05-21T04:32:20;21.30;;;17.40;;
2474;SDS011;1248;48.694;10.160;2023-05-21T04:34:47;21.97;;;17.13;;
2474;SDS011;1248;48.694;10.160;2023-05-21T04:37:14;19.30;;;16.50;;
2474;SDS011;1248;48.694;10.160;2023-05-21T04:39:42;22.23;;;16.60;;
2474;SDS011;1248;48.694;10.160;2023-05-21T04:42:09;19.70;;;17.00;;
2474;SDS011;1248;48.694;10.160;2023-05-21T04:44:37;19.40;;;17.30;;
2474;SDS011;1248;48.694;10.160;2023-05-21T04:47:05;18.43;;;16.00;;
2474;SDS011;1248;48.694;10.160;2023-05-21T04:49:33;20.43;;;15.90;;
2474;SDS011;1248;48.694;10.160;2023-05-21T04:52:00;24.87;;;16.30;;
2474;SDS011;1248;48.694;10.160;2023-05-21T04:54:27;21.30;;;17.47;;
2474;SDS011;1248;48.694;10.160;2023-05-21T04:56:54;18.90;;;16.87;;
2474;SDS011;1248;48.694;10.160;2023-05-21T04:59:22;23.00;;;17.73;;
2474;SDS011;1248;48.694;10.160;2023-05-21T05:01:49;18.77;;;16.77;;
2474;SDS011;1248;48.694;10.160;2023-05-21T05:04:17;21.70;;;16.57;;
2474;SDS011;1248;48.694;10.160;2023-05-21T05:06:45;20.17;;;16.27;;
2474;SDS011;1248;48.694;10.160;2023-05-21T05:09:12;17.57;;;15.47;;
2474;SDS011;1248;48.694;10.160;2023-05-21T05:11:40;18.33;;;15.67;;
2474;SDS011;1248;48.694;10.160;2023-05-21T05:14:07;22.30;;;16.57;;
2474;SDS011;1248;48.694;10.160;2023-05-21T05:16:34;20.43;;;15.70;;
2474;SDS011;1248;48.694;10.160;2023-05-21T05:19:01;18.67;;;15.20;;
2474;SDS011;1248;48.694;10.160;2023-05-21T05:21:28;19.90;;;16.07;;
2474;SDS011;1248;48.694;10.160;2023-05-21T05:23:56;16.33;;;14.50;;
2474;SDS011;1248;48.694;10.160;2023-05-21T05:26:23;17.43;;;15.63;;
2474;SDS011;1248;48.694;10.160;2023-05-21T05:28:50;15.97;;;12.90;;
2474;SDS011;1248;48.694;10.160;2023-05-21T05:31:18;17.17;;;14.87;;
2474;SDS011;1248;48.694;10.160;2023-05-21T05:33:46;17.67;;;14.70;;
2474;SDS011;1248;48.694;10.160;2023-05-21T05:36:13;14.07;;;12.63;;
2474;SDS011;1248;48.694;10.160;2023-05-21T05:38:41;15.80;;;13.23;;
2474;SDS011;1248;48.694;10.160;2023-05-21T05:41:09;16.50;;;13.50;;
2474;SDS011;1248;48.694;10.160;2023-05-21T05:43:36;15.37;;;12.60;;
2474;SDS011;1248;48.694;10.160;2023-05-21T05:46:03;15.30;;;12.80;;
2474;SDS011;1248;48.694;10.160;2023-05-21T05:48:30;14.57;;;12.17;;
2474;SDS011;1248;48.694;10.160;2023-05-21T05:50:57;14.80;;;11.97;;
2474;SDS011;1248;48.694;10.160;2023-05-21T05:53:24;13.27;;;11.70;;
2474;SDS011;1248;48.694;10.160;2023-05-21T05:55:51;15.77;;;12.40;;
2474;SDS011;1248;48.694;10.160;2023-05-21T05:58:20;15.23;;;11.73;;
2474;SDS011;1248;48.694;10.160;2023-05-21T06:00:46;13.37;;;11.73;;
2474;SDS011;1248;48.694;10.160;2023-05-21T06:03:14;13.87;;;11.07;;
2474;SDS011;1248;48.694;10.160;2023-05-21T06:05:41;12.60;;;10.33;;
2474;SDS011;1248;48.694;10.160;2023-05-21T06:08:08;13.60;;;10.80;;
2474;SDS011;1248;48.694;10.160;2023-05-21T06:10:35;12.57;;;11.27;;
2474;SDS011;1248;48.694;10.160;2023-05-21T06:13:02;12.23;;;10.23;;
2474;SDS011;1248;48.694;10.160;2023-05-21T06:15:30;13.20;;;10.10;;
2474;SDS011;1248;48.694;10.160;2023-05-21T06:17:57;11.37;;;10.17;;
2474;SDS011;1248;48.694;10.160;2023-05-21T06:20:24;14.13;;;10.97;;
2474;SDS011;1248;48.694;10.160;2023-05-21T06:22:52;10.07;;;9.07;;
2474;SDS011;1248;48.694;10.160;2023-05-21T06:25:19;11.60;;;9.37;;
2474;SDS011;1248;48.694;10.160;2023-05-21T06:27:46;10.60;;;9.60;;
2474;SDS011;1248;48.694;10.160;2023-05-21T06:30:13;10.03;;;9.03;;
2474;SDS011;1248;48.694;10.160;2023-05-21T06:32:41;13.00;;;10.83;;
2474;SDS011;1248;48.694;10.160;2023-05-21T06:35:09;12.63;;;10.30;;
2474;SDS011;1248;48.694;10.160;2023-05-21T06:37:36;10.00;;;8.90;;
2474;SDS011;1248;48.694;10.160;2023-05-21T06:40:03;11.97;;;8.90;;
2474;SDS011;1248;48.694;10.160;2023-05-21T06:42:31;11.70;;;9.53;;
2474;SDS011;1248;48.694;10.160;2023-05-21T06:44:58;11.63;;;10.03;;
2474;SDS011;1248;48.694;10.160;2023-05-21T06:47:25;11.13;;;9.77;;
2474;SDS011;1248;48.694;10.160;2023-05-21T06:49:53;10.20;;;9.20;;
2474;SDS011;1248;48.694;10.160;2023-05-21T06:52:20;12.40;;;9.43;;
2474;SDS011;1248;48.694;10.160;2023-05-21T06:54:47;12.13;;;8.90;;
2474;SDS011;1248;48.694;10.160;2023-05-21T06:57:14;11.27;;;8.77;;
2474;SDS011;1248;48.694;10.160;2023-05-21T06:59:42;13.53;;;8.63;;
2474;SDS011;1248;48.694;10.160;2023-05-21T07:02:09;11.60;;;8.90;;
2474;SDS011;1248;48.694;10.160;2023-05-21T07:04:36;10.77;;;8.67;;
2474;SDS011;1248;48.694;10.160;2023-05-21T07:07:04;9.33;;;8.33;;
2474;SDS011;1248;48.694;10.160;2023-05-21T07:09:31;9.33;;;8.40;;
2474;SDS011;1248;48.694;10.160;2023-05-21T07:11:58;10.97;;;8.07;;
2474;SDS011;1248;48.694;10.160;2023-05-21T07:14:25;11.20;;;8.73;;
2474;SDS011;1248;48.694;10.160;2023-05-21T07:16:52;9.80;;;8.80;;
2474;SDS011;1248;48.694;10.160;2023-05-21T07:19:20;10.50;;;9.47;;
2474;SDS011;1248;48.694;10.160;2023-05-21T07:21:47;9.30;;;8.40;;
2474;SDS011;1248;48.694;10.160;2023-05-21T07:24:16;11.83;;;7.60;;
2474;SDS011;1248;48.694;10.160;2023-05-21T07:26:43;9.30;;;8.37;;
2474;SDS011;1248;48.694;10.160;2023-05-21T07:29:10;10.83;;;8.33;;
2474;SDS011;1248;48.694;10.160;2023-05-21T07:31:37;9.27;;;8.37;;
2474;SDS011;1248;48.694;10.160;2023-05-21T07:34:04;8.40;;;7.60;;
2474;SDS011;1248;48.694;10.160;2023-05-21T07:36:31;11.57;;;8.27;;
2474;SDS011;1248;48.694;10.160;2023-05-21T07:38:59;13.63;;;9.03;;
2474;SDS011;1248;48.694;10.160;2023-05-21T07:41:27;10.07;;;8.93;;
2474;SDS011;1248;48.694;10.160;2023-05-21T07:43:54;10.80;;;7.93;;
2474;SDS011;1248;48.694;10.160;2023-05-21T07:46:21;9.60;;;8.20;;
2474;SDS011;1248;48.694;10.160;2023-05-21T07:48:48;8.80;;;7.90;;
2474;SDS011;1248;48.694;10.160;2023-05-21T07:51:15;11.37;;;8.50;;
2474;SDS011;1248;48.694;10.160;2023-05-21T07:53:42;8.93;;;8.13;;
2474;SDS011;1248;48.694;10.160;2023-05-21T07:56:09;9.03;;;7.60;;
2474;SDS011;1248;48.694;10.160;2023-05-21T07:58:38;9.43;;;7.47;;
2474;SDS011;1248;48.694;10.160;2023-05-21T08:01:05;11.23;;;8.63;;
2474;SDS011;1248;48.694;10.160;2023-05-21T08:03:32;8.60;;;7.70;;
2474;SDS011;1248;48.694;10.160;2023-05-21T08:05:59;9.70;;;7.60;;
2474;SDS011;1248;48.694;10.160;2023-05-21T08:08:26;8.03;;;7.20;;
2474;SDS011;1248;48.694;10.160;2023-05-21T08:10:54;8.47;;;7.67;;
2474;SDS011;1248;48.694;10.160;2023-05-21T08:13:21;10.07;;;7.97;;
2474;SDS011;1248;48.694;10.160;2023-05-21T08:15:49;9.47;;;7.33;;
2474;SDS011;1248;48.694;10.160;2023-05-21T08:18:17;8.03;;;7.23;;
2474;SDS011;1248;48.694;10.160;2023-05-21T08:20:44;9.97;;;8.17;;
2474;SDS011;1248;48.694;10.160;2023-05-21T08:23:12;10.00;;;7.83;;
2474;SDS011;1248;48.694;10.160;2023-05-21T08:25:39;8.47;;;7.57;;
2474;SDS011;1248;48.694;10.160;2023-05-21T08:28:06;9.23;;;7.47;;
2474;SDS011;1248;48.694;10.160;2023-05-21T08:30:33;10.33;;;7.80;;
2474;SDS011;1248;48.694;10.160;2023-05-21T08:33:02;7.87;;;7.07;;
2474;SDS011;1248;48.694;10.160;2023-05-21T08:35:29;10.13;;;8.50;;
2474;SDS011;1248;48.694;10.160;2023-05-21T08:37:56;7.77;;;7.07;;
2474;SDS011;1248;48.694;10.160;2023-05-21T08:40:23;9.43;;;6.90;;
2474;SDS011;1248;48.694;10.160;2023-05-21T08:42:50;9.57;;;8.13;;
2474;SDS011;1248;48.694;10.160;2023-05-21T08:45:19;8.63;;;7.50;;
2474;SDS011;1248;48.694;10.160;2023-05-21T08:47:46;10.00;;;7.97;;
2474;SDS011;1248;48.694;10.160;2023-05-21T08:50:15;7.80;;;6.93;;
2474;SDS011;1248;48.694;10.160;2023-05-21T08:52:43;8.10;;;7.30;;
2474;SDS011;1248;48.694;10.160;2023-05-21T08:55:11;8.50;;;7.37;;
2474;SDS011;1248;48.694;10.160;2023-05-21T08:57:38;9.73;;;7.87;;
2474;SDS011;1248;48.694;10.160;2023-05-21T09:00:08;10.13;;;8.50;;
2474;SDS011;1248;48.694;10.160;2023-05-21T09:02:36;10.87;;;7.43;;
2474;SDS011;1248;48.694;10.160;2023-05-21T09:05:05;10.80;;;7.80;;
2474;SDS011;1248;48.694;10.160;2023-05-21T09:07:41;8.80;;;7.90;;
2474;SDS011;1248;48.694;10.160;2023-05-21T09:10:10;8.47;;;7.37;;
2474;SDS011;1248;48.694;10.160;2023-05-21T09:12:38;10.40;;;7.63;;
2474;SDS011;1248;48.694;10.160;2023-05-21T09:15:05;11.27;;;9.20;;
2474;SDS011;1248;48.694;10.160;2023-05-21T09:17:33;8.10;;;7.20;;
2474;SDS011;1248;48.694;10.160;2023-05-21T09:20:03;8.30;;;7.10;;
2474;SDS011;1248;48.694;10.160;2023-05-21T09:22:37;8.50;;;6.77;;
2474;SDS011;1248;48.694;10.160;2023-05-21T09:25:06;9.17;;;7.60;;
2474;SDS011;1248;48.694;10.160;2023-05-21T09:27:34;9.83;;;7.93;;
2474;SDS011;1248;48.694;10.160;2023-05-21T09:30:02;9.10;;;7.87;;
2474;SDS011;1248;48.694;10.160;2023-05-21T09:32:29;10.43;;;8.23;;
2474;SDS011;1248;48.694;10.160;2023-05-21T09:34:56;7.70;;;6.90;;
2474;SDS011;1248;48.694;10.160;2023-05-21T09:37:23;9.70;;;8.27;;
2474;SDS011;1248;48.694;10.160;2023-05-21T09:39:53;9.83;;;8.83;;
2474;SDS011;1248;48.694;10.160;2023-05-21T09:42:20;9.17;;;8.07;;
2474;SDS011;1248;48.694;10.160;2023-05-21T09:44:48;12.30;;;8.57;;
2474;SDS011;1248;48.694;10.160;2023-05-21T09:47:18;8.97;;;6.90;;
2474;SDS011;1248;48.694;10.160;2023-05-21T09:49:45;9.07;;;7.60;;
2474;SDS011;1248;48.694;10.160;2023-05-21T09:52:13;9.03;;;8.13;;
2474;SDS011;1248;48.694;10.160;2023-05-21T09:54:48;8.70;;;7.43;;
2474;SDS011;1248;48.694;10.160;2023-05-21T09:57:23;8.80;;;7.90;;
2474;SDS011;1248;48.694;10.160;2023-05-21T09:59:50;11.67;;;8.63;;
2474;SDS011;1248;48.694;10.160;2023-05-21T10:02:18;8.70;;;7.50;;
2474;SDS011;1248;48.694;10.160;2023-05-21T10:04:47;11.23;;;8.00;;
2474;SDS011;1248;48.694;10.160;2023-05-21T10:07:15;11.13;;;8.37;;
2474;SDS011;1248;48.694;10.160;2023-05-21T10:09:44;8.83;;;7.90;;
2474;SDS011;1248;48.694;10.160;2023-05-21T10:12:13;9.93;;;8.10;;
2474;SDS011;1248;48.694;10.160;2023-05-21T10:14:44;9.30;;;8.30;;
2474;SDS011;1248;48.694;10.160;2023-05-21T10:17:12;12.77;;;9.17;;
2474;SDS011;1248;48.694;10.160;2023-05-21T10:19:40;10.30;;;7.70;;
2474;SDS011;1248;48.694;10.160;2023-05-21T10:22:07;10.10;;;8.63;;
2474;SDS011;1248;48.694;10.160;2023-05-21T10:24:35;12.07;;;8.70;;
2474;SDS011;1248;48.694;10.160;2023-05-21T10:27:02;9.40;;;7.70;;
2474;SDS011;1248;48.694;10.160;2023-05-21T10:29:29;10.37;;;7.70;;
2474;SDS011;1248;48.694;10.160;2023-05-21T10:31:58;9.17;;;8.23;;
2474;SDS011;1248;48.694;10.160;2023-05-21T10:34:26;11.97;;;9.07;;
2474;SDS011;1248;48.694;10.160;2023-05-21T10:36:53;9.97;;;8.07;;
2474;SDS011;1248;48.694;10.160;2023-05-21T10:39:21;11.87;;;8.20;;
2474;SDS011;1248;48.694;10.160;2023-05-21T10:41:50;8.97;;;7.47;;
2474;SDS011;1248;48.694;10.160;2023-05-21T10:44:26;9.47;;;8.30;;
2474;SDS011;1248;48.694;10.160;2023-05-21T10:47:05;14.67;;;9.50;;
2474;SDS011;1248;48.694;10.160;2023-05-21T10:49:51;10.00;;;8.47;;
2474;SDS011;1248;48.694;10.160;2023-05-21T10:52:27;11.47;;;9.30;;
2474;SDS011;1248;48.694;10.160;2023-05-21T10:58:09;9.03;;;8.10;;
2474;SDS011;1248;48.694;10.160;2023-05-21T11:00:43;8.20;;;7.40;;
2474;SDS011;1248;48.694;10.160;2023-05-21T11:03:12;7.77;;;6.97;;
2474;SDS011;1248;48.694;10.160;2023-05-21T11:05:39;9.53;;;7.50;;
2474;SDS011;1248;48.694;10.160;2023-05-21T11:08:17;10.13;;;8.50;;
2474;SDS011;1248;48.694;10.160;2023-05-21T11:10:50;8.23;;;7.53;;
2474;SDS011;1248;48.694;10.160;2023-05-21T11:13:17;9.17;;;8.27;;
2474;SDS011;1248;48.694;10.160;2023-05-21T11:16:01;8.73;;;7.83;;
2474;SDS011;1248;48.694;10.160;2023-05-21T11:21:28;9.20;;;7.10;;
2474;SDS011;1248;48.694;10.160;2023-05-21T11:24:00;10.70;;;8.13;;
2474;SDS011;1248;48.694;10.160;2023-05-21T11:26:29;10.40;;;8.33;;
2474;SDS011;1248;48.694;10.160;2023-05-21T11:29:07;11.30;;;8.10;;
2474;SDS011;1248;48.694;10.160;2023-05-21T11:31:34;9.00;;;7.23;;
2474;SDS011;1248;48.694;10.160;2023-05-21T11:34:11;11.27;;;7.20;;
2474;SDS011;1248;48.694;10.160;2023-05-21T11:36:39;8.30;;;7.00;;
2474;SDS011;1248;48.694;10.160;2023-05-21T11:39:07;9.37;;;8.33;;
2474;SDS011;1248;48.694;10.160;2023-05-21T11:41:48;11.67;;;8.00;;
2474;SDS011;1248;48.694;10.160;2023-05-21T11:44:18;8.70;;;7.80;;
2474;SDS011;1248;48.694;10.160;2023-05-21T11:46:47;9.17;;;7.40;;
2474;SDS011;1248;48.694;10.160;2023-05-21T11:49:16;7.30;;;6.60;;
2474;SDS011;1248;48.694;10.160;2023-05-21T11:51:43;8.87;;;7.80;;
2474;SDS011;1248;48.694;10.160;2023-05-21T11:54:10;12.50;;;8.00;;
2474;SDS011;1248;48.694;10.160;2023-05-21T11:56:37;7.23;;;6.53;;
2474;SDS011;1248;48.694;10.160;2023-05-21T11:59:12;8.17;;;7.43;;
2474;SDS011;1248;48.694;10.160;2023-05-21T12:01:41;8.97;;;7.77;;
2474;SDS011;1248;48.694;10.160;2023-05-21T12:04:08;11.70;;;7.17;;
2474;SDS011;1248;48.694;10.160;2023-05-21T12:06:37;9.83;;;7.50;;
2474;SDS011;1248;48.694;10.160;2023-05-21T12:09:07;9.60;;;7.30;;
2474;SDS011;1248;48.694;10.160;2023-05-21T12:11:36;9.33;;;8.07;;
2474;SDS011;1248;48.694;10.160;2023-05-21T12:14:05;11.90;;;7.80;;
2474;SDS011;1248;48.694;10.160;2023-05-21T12:16:32;10.80;;;7.43;;
2474;SDS011;1248;48.694;10.160;2023-05-21T12:19:00;8.40;;;6.90;;
2474;SDS011;1248;48.694;10.160;2023-05-21T12:21:27;8.50;;;7.60;;
2474;SDS011;1248;48.694;10.160;2023-05-21T12:23:56;7.47;;;6.60;;
2474;SDS011;1248;48.694;10.160;2023-05-21T12:26:23;9.77;;;7.47;;
2474;SDS011;1248;48.694;10.160;2023-05-21T12:28:51;9.70;;;6.67;;
2474;SDS011;1248;48.694;10.160;2023-05-21T12:31:19;7.47;;;6.20;;
2474;SDS011;1248;48.694;10.160;2023-05-21T12:33:47;9.70;;;7.33;;
2474;SDS011;1248;48.694;10.160;2023-05-21T12:36:21;8.10;;;7.30;;
2474;SDS011;1248;48.694;10.160;2023-05-21T12:38:49;6.90;;;6.30;;
2474;SDS011;1248;48.694;10.160;2023-05-21T12:41:18;8.77;;;7.30;;
2474;SDS011;1248;48.694;10.160;2023-05-21T12:43:45;8.23;;;7.43;;
2474;SDS011;1248;48.694;10.160;2023-05-21T12:46:13;7.00;;;6.13;;
2474;SDS011;1248;48.694;10.160;2023-05-21T12:48:46;9.20;;;7.60;;
2474;SDS011;1248;48.694;10.160;2023-05-21T12:51:14;7.97;;;6.80;;
2474;SDS011;1248;48.694;10.160;2023-05-21T12:53:41;11.80;;;7.17;;
2474;SDS011;1248;48.694;10.160;2023-05-21T12:56:09;8.07;;;7.27;;
2474;SDS011;1248;48.694;10.160;2023-05-21T12:58:38;9.63;;;6.73;;
2474;SDS011;1248;48.694;10.160;2023-05-21T13:01:05;8.03;;;7.13;;
2474;SDS011;1248;48.694;10.160;2023-05-21T13:03:33;7.87;;;6.83;;
2474;SDS011;1248;48.694;10.160;2023-05-21T13:06:00;6.30;;;5.70;;
2474;SDS011;1248;48.694;10.160;2023-05-21T13:08:27;7.80;;;6.43;;
2474;SDS011;1248;48.694;10.160;2023-05-21T13:10:54;6.30;;;5.70;;
2474;SDS011;1248;48.694;10.160;2023-05-21T13:13:22;6.07;;;5.53;;
2474;SDS011;1248;48.694;10.160;2023-05-21T13:15:50;7.50;;;6.03;;
2474;SDS011;1248;48.694;10.160;2023-05-21T13:18:18;10.53;;;6.60;;
2474;SDS011;1248;48.694;10.160;2023-05-21T13:20:46;7.30;;;5.73;;
2474;SDS011;1248;48.694;10.160;2023-05-21T13:23:13;7.00;;;6.33;;
2474;SDS011;1248;48.694;10.160;2023-05-21T13:25:41;6.80;;;6.13;;
2474;SDS011;1248;48.694;10.160;2023-05-21T13:28:08;7.20;;;5.80;;
2474;SDS011;1248;48.694;10.160;2023-05-21T13:30:39;6.70;;;6.10;;
2474;SDS011;1248;48.694;10.160;2023-05-21T13:33:07;6.87;;;6.10;;
2474;SDS011;1248;48.694;10.160;2023-05-21T13:35:36;7.57;;;6.80;;
2474;SDS011;1248;48.694;10.160;2023-05-21T13:38:03;8.20;;;5.67;;
2474;SDS011;1248;48.694;10.160;2023-05-21T13:40:30;8.70;;;6.77;;
2474;SDS011;1248;48.694;10.160;2023-05-21T13:42:57;6.70;;;6.10;;
2474;SDS011;1248;48.694;10.160;2023-05-21T13:45:24;8.50;;;6.30;;
2474;SDS011;1248;48.694;10.160;2023-05-21T13:47:53;8.20;;;6.57;;
2474;SDS011;1248;48.694;10.160;2023-05-21T13:50:22;7.43;;;6.73;;
2474;SDS011;1248;48.694;10.160;2023-05-21T13:52:50;7.27;;;6.27;;
2474;SDS011;1248;48.694;10.160;2023-05-21T13:55:17;7.83;;;6.10;;
2474;SDS011;1248;48.694;10.160;2023-05-21T13:57:44;7.00;;;6.30;;
2474;SDS011;1248;48.694;10.160;2023-05-21T14:00:12;8.40;;;6.10;;
2474;SDS011;1248;48.694;10.160;2023-05-21T14:02:40;6.90;;;6.20;;
2474;SDS011;1248;48.694;10.160;2023-05-21T14:05:08;6.47;;;5.83;;
2474;SDS011;1248;48.694;10.160;2023-05-21T14:07:37;7.03;;;6.23;;
2474;SDS011;1248;48.694;10.160;2023-05-21T14:10:05;7.50;;;6.23;;
2474;SDS011;1248;48.694;10.160;2023-05-21T14:12:33;13.40;;;6.00;;
2474;SDS011;1248;48.694;10.160;2023-05-21T14:15:00;7.57;;;6.67;;
2474;SDS011;1248;48.694;10.160;2023-05-21T14:17:27;9.07;;;6.80;;
2474;SDS011;1248;48.694;10.160;2023-05-21T14:19:54;6.57;;;5.80;;
2474;SDS011;1248;48.694;10.160;2023-05-21T14:22:21;6.67;;;6.07;;
2474;SDS011;1248;48.694;10.160;2023-05-21T14:24:49;9.83;;;6.67;;
2474;SDS011;1248;48.694;10.160;2023-05-21T14:27:17;8.07;;;6.10;;
2474;SDS011;1248;48.694;10.160;2023-05-21T14:29:44;7.60;;;6.40;;
2474;SDS011;1248;48.694;10.160;2023-05-21T14:32:11;6.67;;;6.07;;
2474;SDS011;1248;48.694;10.160;2023-05-21T14:34:38;7.20;;;6.50;;
2474;SDS011;1248;48.694;10.160;2023-05-21T14:37:05;6.77;;;6.17;;
2474;SDS011;1248;48.694;10.160;2023-05-21T14:39:32;8.10;;;6.73;;
2474;SDS011;1248;48.694;10.160;2023-05-21T14:42:03;6.30;;;5.50;;
2474;SDS011;1248;48.694;10.160;2023-05-21T14:44:30;6.90;;;6.30;;
2474;SDS011;1248;48.694;10.160;2023-05-21T14:46:57;11.27;;;5.93;;
2474;SDS011;1248;48.694;10.160;2023-05-21T14:49:24;7.03;;;6.33;;
2474;SDS011;1248;48.694;10.160;2023-05-21T14:51:51;6.60;;;5.53;;
2474;SDS011;1248;48.694;10.160;2023-05-21T14:54:18;5.90;;;5.27;;
2474;SDS011;1248;48.694;10.160;2023-05-21T14:56:45;12.60;;;6.77;;
2474;SDS011;1248;48.694;10.160;2023-05-21T14:59:13;8.77;;;5.73;;